Time;durP1;ratioP1;P1;durP2;ratioP2;P2;SDS_P1;SDS_P2;PMS_P1;PMS_P2;Temp;Humidity;BMP_temperature;BMP_pressure;BME280_temperature;BME280_humidity;BME280_pressure;Samples;Min_cycle;Max_cycle;Signal;HPM_P1;HPM_P2
2022/02/15 00:00:41;;;;;;;1.42;1.27;;;;;;;;;;1802069;78;26276;-52
2022/02/15 00:03:08;;;;;;;1.60;1.50;;;;;;;;;;1800366;79;26742;-47
2022/02/15 00:05:36;;;;;;;2.77;1.30;;;;;;;;;;1801908;79;26209;-45
2022/02/15 00:08:04;;;;;;;1.40;1.40;;;;;;;;;;1802126;79;26276;-54
2022/02/15 00:10:31;;;;;;;1.60;1.50;;;;;;;;;;1802230;79;26279;-49
2022/02/15 00:13:02;;;;;;;1.37;1.32;;;;;;;;;;1801649;79;26264;-53
2022/02/15 00:15:27;;;;;;;1.40;1.40;;;;;;;;;;1801796;78;26333;-55
2022/02/15 00:17:54;;;;;;;2.87;1.40;;;;;;;;;;1832694;78;27228;-56
2022/02/15 00:20:22;;;;;;;1.15;1.15;;;;;;;;;;1833225;78;26727;-56
2022/02/15 00:22:49;;;;;;;2.77;1.30;;;;;;;;;;1832751;78;26342;-54
2022/02/15 00:25:16;;;;;;;1.47;1.37;;;;;;;;;;1833015;78;26208;-56
2022/02/15 00:27:44;;;;;;;1.35;1.25;;;;;;;;;;1847193;77;26347;-56
2022/02/15 00:30:12;;;;;;;1.57;1.47;;;;;;;;;;1847427;77;26314;-55
2022/02/15 00:32:41;;;;;;;1.30;1.30;;;;;;;;;;1848630;77;26345;-54
2022/02/15 00:35:09;;;;;;;1.10;1.10;;;;;;;;;;1846726;77;26726;-54
2022/02/15 00:37:36;;;;;;;1.20;1.20;;;;;;;;;;1847347;77;26216;-52
2022/02/15 00:40:04;;;;;;;1.10;1.10;;;;;;;;;;1846338;77;26747;-52
2022/02/15 00:42:31;;;;;;;1.47;1.37;;;;;;;;;;1846870;76;26330;-56
2022/02/15 00:44:59;;;;;;;1.00;1.00;;;;;;;;;;1847284;77;26233;-54
2022/02/15 00:47:26;;;;;;;1.30;1.30;;;;;;;;;;1847174;77;26295;-52
2022/02/15 00:49:53;;;;;;;1.20;1.20;;;;;;;;;;1850518;77;26194;-54
2022/02/15 00:52:21;;;;;;;1.00;1.00;;;;;;;;;;1828295;76;26661;-52
2022/02/15 00:54:48;;;;;;;1.17;1.17;;;;;;;;;;1845362;76;26401;-52
2022/02/15 00:57:16;;;;;;;1.20;1.20;;;;;;;;;;1842822;76;26240;-54
2022/02/15 00:59:43;;;;;;;1.47;1.27;;;;;;;;;;1844525;76;26275;-52
2022/02/15 01:02:11;;;;;;;1.00;1.00;;;;;;;;;;1848699;76;26714;-49
2022/02/15 01:04:38;;;;;;;1.15;1.15;;;;;;;;;;1842243;76;26275;-51
2022/02/15 01:07:05;;;;;;;1.35;1.25;;;;;;;;;;1842761;76;26350;-51
2022/02/15 01:09:33;;;;;;;1.20;1.20;;;;;;;;;;1844941;76;26264;-54
2022/02/15 01:12:01;;;;;;;1.30;1.20;;;;;;;;;;1844248;76;26826;-55
2022/02/15 01:14:29;;;;;;;1.30;1.30;;;;;;;;;;1837976;76;26331;-57
2022/02/15 01:16:56;;;;;;;1.10;1.10;;;;;;;;;;1844721;76;27747;-54
2022/02/15 01:19:23;;;;;;;1.40;1.30;;;;;;;;;;1855640;76;26247;-51
2022/02/15 01:21:50;;;;;;;1.85;1.20;;;;;;;;;;1840732;77;26290;-53
2022/02/15 01:24:18;;;;;;;1.25;1.25;;;;;;;;;;1853033;76;26364;-56
2022/02/15 01:26:45;;;;;;;1.50;1.40;;;;;;;;;;1853593;76;26291;-58
2022/02/15 01:29:12;;;;;;;1.20;1.10;;;;;;;;;;1837691;76;26313;-59
2022/02/15 01:31:40;;;;;;;2.10;1.40;;;;;;;;;;1849873;76;26221;-50
2022/02/15 01:34:07;;;;;;;2.52;1.30;;;;;;;;;;1852774;76;26268;-48
2022/02/15 01:36:34;;;;;;;2.33;1.30;;;;;;;;;;1858468;76;26270;-52
2022/02/15 01:39:01;;;;;;;1.50;1.20;;;;;;;;;;1858721;76;26286;-49
2022/02/15 01:41:29;;;;;;;1.15;1.05;;;;;;;;;;1858319;76;26278;-48
2022/02/15 01:43:56;;;;;;;1.30;1.20;;;;;;;;;;1860515;76;26260;-50
2022/02/15 01:46:23;;;;;;;1.35;1.25;;;;;;;;;;1844722;76;26301;-49
2022/02/15 01:48:51;;;;;;;1.05;1.05;;;;;;;;;;1851397;76;26291;-49
2022/02/15 01:51:18;;;;;;;1.07;1.07;;;;;;;;;;1841669;76;26228;-48
2022/02/15 01:53:45;;;;;;;1.52;1.00;;;;;;;;;;1846960;76;26318;-50
2022/02/15 01:56:13;;;;;;;1.07;1.02;;;;;;;;;;1856328;75;26375;-48
2022/02/15 01:58:41;;;;;;;1.45;1.17;;;;;;;;;;1845818;76;26675;-50
2022/02/15 02:01:09;;;;;;;1.10;1.10;;;;;;;;;;1844373;76;26259;-49
2022/02/15 02:03:36;;;;;;;2.05;1.40;;;;;;;;;;1844519;76;26203;-50
2022/02/15 02:06:03;;;;;;;1.30;1.20;;;;;;;;;;1845010;76;26298;-50
2022/02/15 02:08:32;;;;;;;1.35;1.10;;;;;;;;;;1848637;76;26750;-48
2022/02/15 02:11:00;;;;;;;1.95;1.05;;;;;;;;;;1853747;76;26734;-51
2022/02/15 02:13:28;;;;;;;1.30;1.10;;;;;;;;;;1846503;76;26323;-49
2022/02/15 02:15:55;;;;;;;1.62;1.10;;;;;;;;;;1846002;76;26299;-52
2022/02/15 02:18:23;;;;;;;1.30;1.30;;;;;;;;;;1828021;76;26302;-50
2022/02/15 02:20:50;;;;;;;1.10;1.10;;;;;;;;;;1846491;76;26303;-49
2022/02/15 02:23:19;;;;;;;1.87;1.20;;;;;;;;;;1846762;76;26298;-49
2022/02/15 02:25:46;;;;;;;1.10;1.10;;;;;;;;;;1835774;76;26200;-50
2022/02/15 02:28:14;;;;;;;1.10;1.10;;;;;;;;;;1834731;76;26797;-51
2022/02/15 02:30:41;;;;;;;1.02;1.02;;;;;;;;;;1829566;78;26342;-50
2022/02/15 02:33:08;;;;;;;1.00;1.00;;;;;;;;;;1846349;76;26354;-49
2022/02/15 02:35:36;;;;;;;1.17;1.12;;;;;;;;;;1830149;76;26719;-53
2022/02/15 02:38:04;;;;;;;1.20;1.20;;;;;;;;;;1802323;79;26766;-50
2022/02/15 02:40:31;;;;;;;1.10;1.10;;;;;;;;;;1844461;77;26214;-49
2022/02/15 02:42:59;;;;;;;2.52;1.20;;;;;;;;;;1798418;80;26671;-49
2022/02/15 02:45:26;;;;;;;1.37;1.15;;;;;;;;;;1798887;80;26278;-49
2022/02/15 02:47:54;;;;;;;0.95;0.95;;;;;;;;;;1798282;79;26363;-49
2022/02/15 02:50:27;;;;;;;1.10;1.10;;;;;;;;;;1797832;80;26230;-48
2022/02/15 02:52:55;;;;;;;1.10;1.10;;;;;;;;;;1785516;80;26274;-52
2022/02/15 02:55:23;;;;;;;1.17;1.12;;;;;;;;;;1799347;79;26334;-50
2022/02/15 02:57:53;;;;;;;1.20;1.10;;;;;;;;;;1799330;80;26656;-50
2022/02/15 03:00:20;;;;;;;1.45;0.98;;;;;;;;;;1799157;79;26248;-50
2022/02/15 03:02:47;;;;;;;1.00;1.00;;;;;;;;;;1799035;80;26720;-49
2022/02/15 03:05:14;;;;;;;1.15;1.02;;;;;;;;;;1798381;80;26303;-50
2022/02/15 03:07:42;;;;;;;1.10;1.10;;;;;;;;;;1797012;80;26280;-52
2022/02/15 03:10:09;;;;;;;1.10;1.10;;;;;;;;;;1784124;80;26272;-51
2022/02/15 03:12:37;;;;;;;1.22;1.22;;;;;;;;;;1798427;80;26316;-49
2022/02/15 03:15:04;;;;;;;1.07;1.07;;;;;;;;;;1798458;79;26312;-49
2022/02/15 03:17:32;;;;;;;1.37;1.27;;;;;;;;;;1798788;80;27125;-51
2022/02/15 03:19:59;;;;;;;1.12;1.10;;;;;;;;;;1798623;80;26677;-51
2022/02/15 03:22:26;;;;;;;1.22;1.22;;;;;;;;;;1797489;80;26270;-49
2022/02/15 03:24:54;;;;;;;0.90;0.90;;;;;;;;;;1797776;78;26343;-52
2022/02/15 03:27:21;;;;;;;1.20;1.10;;;;;;;;;;1799408;79;26369;-49
2022/02/15 03:29:48;;;;;;;0.88;0.88;;;;;;;;;;1799118;79;26836;-52
2022/02/15 03:32:16;;;;;;;1.20;1.20;;;;;;;;;;1776727;80;26772;-54
2022/02/15 03:34:43;;;;;;;1.15;1.15;;;;;;;;;;1811663;78;26265;-52
2022/02/15 03:37:11;;;;;;;1.25;1.15;;;;;;;;;;1796775;78;26278;-50
2022/02/15 03:39:38;;;;;;;1.12;1.12;;;;;;;;;;1785249;78;26829;-50
2022/02/15 03:44:53;;;;;;;1.02;1.00;;;;;;;;;;1804757;78;26802;-53
2022/02/15 03:47:20;;;;;;;1.00;1.00;;;;;;;;;;1796301;78;26267;-49
2022/02/15 03:49:47;;;;;;;1.00;1.00;;;;;;;;;;1797115;78;26273;-54
2022/02/15 03:52:15;;;;;;;1.20;1.10;;;;;;;;;;1794746;78;26284;-52
2022/02/15 03:54:42;;;;;;;1.20;1.15;;;;;;;;;;1798348;78;26801;-51
2022/02/15 03:57:09;;;;;;;1.10;1.10;;;;;;;;;;1797887;80;26390;-51
2022/02/15 03:59:37;;;;;;;2.45;1.20;;;;;;;;;;1796513;80;26228;-49
2022/02/15 04:02:04;;;;;;;1.10;1.10;;;;;;;;;;1798455;80;26316;-49
2022/02/15 04:04:32;;;;;;;1.12;1.00;;;;;;;;;;1796498;80;26343;-51
2022/02/15 04:06:59;;;;;;;1.57;1.00;;;;;;;;;;1792756;80;26316;-53
2022/02/15 04:09:26;;;;;;;1.00;1.00;;;;;;;;;;1798644;80;26751;-53
2022/02/15 04:11:53;;;;;;;1.10;1.10;;;;;;;;;;1798527;80;26493;-52
2022/02/15 04:14:21;;;;;;;1.12;1.12;;;;;;;;;;1799266;80;26320;-52
2022/02/15 04:16:48;;;;;;;1.02;1.02;;;;;;;;;;1784888;79;26250;-52
2022/02/15 04:19:15;;;;;;;1.00;1.00;;;;;;;;;;1815715;79;26723;-50
2022/02/15 04:21:43;;;;;;;1.17;1.17;;;;;;;;;;1829359;77;26719;-50
2022/02/15 04:24:10;;;;;;;1.00;1.00;;;;;;;;;;1796493;79;26812;-50
2022/02/15 04:26:37;;;;;;;1.00;1.00;;;;;;;;;;1814872;79;26245;-50
2022/02/15 04:29:05;;;;;;;1.05;1.05;;;;;;;;;;1829115;78;26260;-49
2022/02/15 04:31:32;;;;;;;0.82;0.82;;;;;;;;;;1842465;76;26351;-50
2022/02/15 04:33:59;;;;;;;1.00;1.00;;;;;;;;;;1843067;76;26818;-49
2022/02/15 04:36:26;;;;;;;1.10;1.10;;;;;;;;;;1842373;76;26790;-51
2022/02/15 04:38:54;;;;;;;1.00;1.00;;;;;;;;;;1841367;76;26862;-50
2022/02/15 04:41:21;;;;;;;1.07;1.07;;;;;;;;;;1846794;76;26277;-50
2022/02/15 04:43:48;;;;;;;0.93;0.93;;;;;;;;;;1834681;76;26270;-49
2022/02/15 04:46:16;;;;;;;0.90;0.90;;;;;;;;;;1841030;76;26373;-49
2022/02/15 04:48:43;;;;;;;0.90;0.90;;;;;;;;;;1840548;76;26809;-49
2022/02/15 04:51:11;;;;;;;0.80;0.80;;;;;;;;;;1838121;76;26537;-50
2022/02/15 04:53:38;;;;;;;1.10;1.10;;;;;;;;;;1843674;76;26302;-48
2022/02/15 04:56:05;;;;;;;1.00;1.00;;;;;;;;;;1843021;76;26823;-48
2022/02/15 04:58:33;;;;;;;1.00;1.00;;;;;;;;;;1825148;77;27661;-49
2022/02/15 05:01:00;;;;;;;1.32;1.10;;;;;;;;;;1842137;76;26350;-48
2022/02/15 05:03:27;;;;;;;0.90;0.90;;;;;;;;;;1821656;77;26282;-51
2022/02/15 05:05:55;;;;;;;0.90;0.90;;;;;;;;;;1837469;77;26286;-52
2022/02/15 05:08:23;;;;;;;1.10;1.10;;;;;;;;;;1837938;76;26281;-48
2022/02/15 05:10:50;;;;;;;0.98;0.98;;;;;;;;;;1837131;76;26648;-50
2022/02/15 05:13:17;;;;;;;0.95;0.95;;;;;;;;;;1833170;76;26805;-48
2022/02/15 05:15:44;;;;;;;0.93;0.93;;;;;;;;;;1831144;76;26342;-52
2022/02/15 05:18:12;;;;;;;0.90;0.90;;;;;;;;;;1840422;76;26292;-49
2022/02/15 05:20:40;;;;;;;0.90;0.90;;;;;;;;;;1842865;76;26220;-48
2022/02/15 05:23:08;;;;;;;0.90;0.90;;;;;;;;;;1794054;78;26512;-48
2022/02/15 05:25:35;;;;;;;2.90;1.80;;;;;;;;;;1787791;78;26365;-48
2022/02/15 05:28:03;;;;;;;5.40;2.35;;;;;;;;;;1785532;78;26366;-53
2022/02/15 05:30:30;;;;;;;7.22;2.40;;;;;;;;;;1787035;78;28663;-53
2022/02/15 05:32:57;;;;;;;8.75;2.35;;;;;;;;;;1749238;80;26344;-52
2022/02/15 05:35:24;;;;;;;6.95;2.12;;;;;;;;;;1790242;78;26332;-53
2022/02/15 05:37:52;;;;;;;3.45;2.30;;;;;;;;;;1794076;78;27349;-55
2022/02/15 05:40:19;;;;;;;4.22;2.10;;;;;;;;;;1789421;78;26703;-56
2022/02/15 05:42:46;;;;;;;3.62;2.10;;;;;;;;;;1787762;78;26236;-56
2022/02/15 05:45:14;;;;;;;13.75;2.37;;;;;;;;;;1769800;80;26670;-55
2022/02/15 05:47:41;;;;;;;2.33;2.00;;;;;;;;;;1800181;78;26299;-48
2022/02/15 05:52:54;;;;;;;2.42;1.87;;;;;;;;;;1791783;78;26776;-49
2022/02/15 05:55:22;;;;;;;2.15;2.00;;;;;;;;;;1782637;78;26378;-49
2022/02/15 05:57:49;;;;;;;8.10;1.90;;;;;;;;;;1792745;78;26773;-51
2022/02/15 06:00:20;;;;;;;1.92;1.55;;;;;;;;;;1772717;78;26316;-48
2022/02/15 06:02:47;;;;;;;1.70;1.60;;;;;;;;;;1797958;80;26225;-50
2022/02/15 06:05:15;;;;;;;1.95;1.60;;;;;;;;;;1789678;78;26998;-52
2022/02/15 06:07:42;;;;;;;4.10;1.40;;;;;;;;;;1776022;78;26390;-50
2022/02/15 06:10:10;;;;;;;2.40;1.50;;;;;;;;;;1777198;78;26304;-49
2022/02/15 06:12:37;;;;;;;1.98;1.60;;;;;;;;;;1798123;80;26733;-50
2022/02/15 06:15:05;;;;;;;3.58;1.57;;;;;;;;;;1795918;78;26680;-50
2022/02/15 06:17:32;;;;;;;12.82;1.52;;;;;;;;;;1788649;78;25692;-49
2022/02/15 06:20:00;;;;;;;9.93;1.70;;;;;;;;;;1815028;78;26814;-50
2022/02/15 06:22:27;;;;;;;7.97;1.82;;;;;;;;;;1805492;78;26312;-49
2022/02/15 06:24:54;;;;;;;6.58;1.80;;;;;;;;;;1812723;78;26353;-49
2022/02/15 06:27:22;;;;;;;5.62;1.70;;;;;;;;;;1809303;78;26313;-50
2022/02/15 06:29:49;;;;;;;3.02;1.35;;;;;;;;;;1823444;77;26877;-49
2022/02/15 06:32:16;;;;;;;3.12;1.30;;;;;;;;;;1827273;77;26727;-49
2022/02/15 06:34:43;;;;;;;3.22;1.25;;;;;;;;;;1826865;77;26712;-49
2022/02/15 06:37:11;;;;;;;7.05;1.30;;;;;;;;;;1827337;77;26284;-49
2022/02/15 06:39:39;;;;;;;3.83;1.30;;;;;;;;;;1816811;77;26295;-50
2022/02/15 06:42:07;;;;;;;1.42;1.27;;;;;;;;;;1815990;77;26466;-51
2022/02/15 06:44:34;;;;;;;6.17;1.25;;;;;;;;;;1814593;77;26804;-51
2022/02/15 06:47:02;;;;;;;1.77;1.30;;;;;;;;;;1828025;77;26342;-51
2022/02/15 06:49:29;;;;;;;2.72;1.40;;;;;;;;;;1825446;77;26271;-51
2022/02/15 06:51:56;;;;;;;2.45;1.30;;;;;;;;;;1831840;77;26865;-50
2022/02/15 06:54:24;;;;;;;5.92;1.20;;;;;;;;;;1832451;77;26699;-48
2022/02/15 06:56:51;;;;;;;1.82;1.20;;;;;;;;;;1832215;77;26331;-50
2022/02/15 06:59:18;;;;;;;2.15;1.12;;;;;;;;;;1832742;77;26334;-49
2022/02/15 07:01:46;;;;;;;1.05;1.00;;;;;;;;;;1833021;77;26332;-48
2022/02/15 07:04:14;;;;;;;1.62;1.20;;;;;;;;;;1824077;77;26304;-49
2022/02/15 07:06:42;;;;;;;2.10;1.25;;;;;;;;;;1833084;77;26692;-49
2022/02/15 07:09:09;;;;;;;1.40;1.30;;;;;;;;;;1817232;77;26376;-48
2022/02/15 07:11:36;;;;;;;1.00;1.00;;;;;;;;;;1832110;77;26279;-49
2022/02/15 07:14:04;;;;;;;1.82;1.10;;;;;;;;;;1824232;77;26293;-49
2022/02/15 07:16:31;;;;;;;2.37;1.17;;;;;;;;;;1824261;77;26805;-51
2022/02/15 07:18:59;;;;;;;0.90;0.90;;;;;;;;;;1844633;76;26236;-49
2022/02/15 07:21:26;;;;;;;1.22;1.12;;;;;;;;;;1839352;76;25712;-48
2022/02/15 07:23:55;;;;;;;1.07;1.07;;;;;;;;;;1832169;76;26314;-49
2022/02/15 07:26:22;;;;;;;1.30;1.20;;;;;;;;;;1844302;76;26779;-49
2022/02/15 07:28:49;;;;;;;1.00;1.00;;;;;;;;;;1843989;76;26811;-49
2022/02/15 07:31:17;;;;;;;1.85;0.95;;;;;;;;;;1841713;76;26249;-49
2022/02/15 07:33:44;;;;;;;1.10;1.10;;;;;;;;;;1837921;76;26255;-49
2022/02/15 07:36:11;;;;;;;0.90;0.90;;;;;;;;;;1843303;76;26205;-49
2022/02/15 07:38:38;;;;;;;0.90;0.90;;;;;;;;;;1832256;76;26208;-49
2022/02/15 07:41:06;;;;;;;0.82;0.82;;;;;;;;;;1847257;76;26761;-49
2022/02/15 07:43:33;;;;;;;0.93;0.93;;;;;;;;;;1842651;76;26377;-50
2022/02/15 07:46:00;;;;;;;1.67;1.10;;;;;;;;;;1846677;76;26342;-49
2022/02/15 07:48:28;;;;;;;1.25;1.10;;;;;;;;;;1836314;76;26744;-51
2022/02/15 07:50:56;;;;;;;0.90;0.90;;;;;;;;;;1846921;76;26243;-50
2022/02/15 07:53:23;;;;;;;0.90;0.90;;;;;;;;;;1834931;76;26321;-50
2022/02/15 07:55:51;;;;;;;1.10;1.10;;;;;;;;;;1838705;76;26319;-50
2022/02/15 07:58:18;;;;;;;0.90;0.90;;;;;;;;;;1847264;76;26343;-49
2022/02/15 08:00:45;;;;;;;1.00;1.00;;;;;;;;;;1840437;76;26317;-49
2022/02/15 08:03:13;;;;;;;0.90;0.90;;;;;;;;;;1847058;76;26329;-49
2022/02/15 08:05:41;;;;;;;0.90;0.90;;;;;;;;;;1850497;76;26273;-49
2022/02/15 08:08:09;;;;;;;1.00;1.00;;;;;;;;;;1846793;76;26237;-52
2022/02/15 08:10:37;;;;;;;1.00;1.00;;;;;;;;;;1839483;76;27419;-49
2022/02/15 08:13:07;;;;;;;0.93;0.93;;;;;;;;;;1845309;76;26289;-51
2022/02/15 08:15:36;;;;;;;0.80;0.80;;;;;;;;;;1846378;76;26327;-49
2022/02/15 08:18:04;;;;;;;0.90;0.90;;;;;;;;;;1846737;76;26332;-49
2022/02/15 08:20:36;;;;;;;0.88;0.88;;;;;;;;;;1846636;76;26209;-51
2022/02/15 08:23:03;;;;;;;1.40;0.85;;;;;;;;;;1837900;76;26528;-52
2022/02/15 08:25:31;;;;;;;0.80;0.80;;;;;;;;;;1846089;77;26286;-51
2022/02/15 08:27:58;;;;;;;0.90;0.90;;;;;;;;;;1843996;77;26596;-49
2022/02/15 08:30:26;;;;;;;1.00;1.00;;;;;;;;;;1832540;76;26270;-55
2022/02/15 08:32:54;;;;;;;1.02;1.02;;;;;;;;;;1845053;76;26574;-54
2022/02/15 08:35:21;;;;;;;1.30;0.80;;;;;;;;;;1846970;77;26338;-52
2022/02/15 08:37:51;;;;;;;1.25;1.15;;;;;;;;;;1847620;77;26301;-55
2022/02/15 08:40:18;;;;;;;1.15;1.00;;;;;;;;;;1846391;76;26340;-51
2022/02/15 08:42:46;;;;;;;0.90;0.90;;;;;;;;;;1852892;77;26363;-51
2022/02/15 08:45:13;;;;;;;1.02;1.02;;;;;;;;;;1842652;76;26529;-50
2022/02/15 08:47:41;;;;;;;0.95;0.95;;;;;;;;;;1838456;77;26743;-47
2022/02/15 08:50:09;;;;;;;1.00;1.00;;;;;;;;;;1846667;77;26337;-58
2022/02/15 08:52:37;;;;;;;1.20;1.00;;;;;;;;;;1846864;77;26905;-50
2022/02/15 08:55:05;;;;;;;0.80;0.80;;;;;;;;;;1846248;76;26291;-48
2022/02/15 08:57:33;;;;;;;4.83;1.17;;;;;;;;;;1827048;76;26227;-55
2022/02/15 09:00:00;;;;;;;0.90;0.90;;;;;;;;;;1842992;77;26746;-59
2022/02/15 09:02:28;;;;;;;1.20;1.00;;;;;;;;;;1851001;77;26295;-52
2022/02/15 09:04:55;;;;;;;0.90;0.90;;;;;;;;;;1835830;77;26282;-48
2022/02/15 09:07:22;;;;;;;1.00;1.00;;;;;;;;;;1853779;77;26805;-58
2022/02/15 09:09:49;;;;;;;4.50;0.90;;;;;;;;;;1843786;77;26244;-58
2022/02/15 09:12:17;;;;;;;1.20;1.10;;;;;;;;;;1846222;77;26264;-50
2022/02/15 09:14:44;;;;;;;0.90;0.90;;;;;;;;;;1845503;77;26264;-50
2022/02/15 09:17:11;;;;;;;1.82;1.00;;;;;;;;;;1846694;76;25830;-51
2022/02/15 09:19:39;;;;;;;1.50;1.02;;;;;;;;;;1853174;76;26805;-52
2022/02/15 09:22:06;;;;;;;3.02;1.00;;;;;;;;;;1841314;76;26282;-55
2022/02/15 09:24:33;;;;;;;1.60;1.02;;;;;;;;;;1847054;76;26282;-54
2022/02/15 09:27:01;;;;;;;1.00;1.00;;;;;;;;;;1855758;76;26508;-49
2022/02/15 09:29:28;;;;;;;1.10;1.10;;;;;;;;;;1845343;76;38586;-52
2022/02/15 09:31:56;;;;;;;0.90;0.90;;;;;;;;;;1859421;76;26300;-51
2022/02/15 09:34:24;;;;;;;0.90;0.90;;;;;;;;;;1842589;76;26309;-56
2022/02/15 09:36:51;;;;;;;0.90;0.90;;;;;;;;;;1857088;76;26834;-57
2022/02/15 09:39:19;;;;;;;1.15;1.05;;;;;;;;;;1852500;76;26348;-54
2022/02/15 09:41:47;;;;;;;1.00;1.00;;;;;;;;;;1855816;76;26604;-52
2022/02/15 09:44:14;;;;;;;0.90;0.90;;;;;;;;;;1853669;76;26353;-52
2022/02/15 09:46:44;;;;;;;3.25;0.95;;;;;;;;;;1856579;76;26216;-47
2022/02/15 09:51:59;;;;;;;0.90;0.90;;;;;;;;;;1852154;76;26579;-51
2022/02/15 09:54:28;;;;;;;1.00;1.00;;;;;;;;;;1851299;76;26712;-51
2022/02/15 09:56:55;;;;;;;1.05;1.05;;;;;;;;;;1844341;76;26291;-52
2022/02/15 09:59:23;;;;;;;2.35;1.00;;;;;;;;;;1854563;76;26760;-52
2022/02/15 10:01:52;;;;;;;1.15;1.02;;;;;;;;;;1855687;76;26859;-52
2022/02/15 10:04:27;;;;;;;3.05;1.05;;;;;;;;;;1856492;76;26742;-51
2022/02/15 10:06:55;;;;;;;1.25;1.15;;;;;;;;;;1853291;76;26402;-55
2022/02/15 10:09:23;;;;;;;1.22;1.00;;;;;;;;;;1833692;77;26254;-52
2022/02/15 10:11:50;;;;;;;0.90;0.90;;;;;;;;;;1851458;77;26749;-53
2022/02/15 10:14:20;;;;;;;1.50;1.30;;;;;;;;;;1840550;77;26233;-55
2022/02/15 10:16:49;;;;;;;1.47;1.07;;;;;;;;;;1847620;77;26268;-58
2022/02/15 10:19:24;;;;;;;1.05;1.05;;;;;;;;;;1854425;77;26307;-53
2022/02/15 10:21:54;;;;;;;1.00;1.00;;;;;;;;;;1842392;77;27530;-57
2022/02/15 10:24:22;;;;;;;1.45;1.02;;;;;;;;;;1846925;77;26303;-54
2022/02/15 10:26:56;;;;;;;1.10;1.10;;;;;;;;;;1844708;78;26353;-55
2022/02/15 10:29:24;;;;;;;1.20;1.20;;;;;;;;;;1846243;76;26368;-56
2022/02/15 10:31:58;;;;;;;1.27;1.10;;;;;;;;;;1854590;76;26699;-51
2022/02/15 10:34:26;;;;;;;1.10;1.10;;;;;;;;;;1850941;77;26274;-49
2022/02/15 10:36:54;;;;;;;0.93;0.93;;;;;;;;;;1846972;78;26282;-57
2022/02/15 10:39:22;;;;;;;1.10;1.00;;;;;;;;;;1832197;77;26325;-52
2022/02/15 10:41:50;;;;;;;0.98;0.98;;;;;;;;;;1824901;77;26354;-56
2022/02/15 10:44:17;;;;;;;1.15;1.15;;;;;;;;;;1852364;77;26282;-51
2022/02/15 10:46:46;;;;;;;0.90;0.90;;;;;;;;;;1846272;78;26284;-55
2022/02/15 10:49:14;;;;;;;1.15;1.15;;;;;;;;;;1846419;78;26280;-52
2022/02/15 10:51:41;;;;;;;1.10;1.10;;;;;;;;;;1846774;78;26693;-54
2022/02/15 10:54:11;;;;;;;1.22;1.22;;;;;;;;;;1843688;76;26337;-52
2022/02/15 10:56:43;;;;;;;1.20;1.10;;;;;;;;;;1840204;76;26281;-49
2022/02/15 10:59:11;;;;;;;1.47;1.05;;;;;;;;;;1843584;76;26349;-54
2022/02/15 11:01:39;;;;;;;1.20;1.20;;;;;;;;;;1852050;76;26277;-49
2022/02/15 11:04:07;;;;;;;1.10;1.10;;;;;;;;;;1843183;76;26330;-56
2022/02/15 11:06:34;;;;;;;1.00;1.00;;;;;;;;;;1845505;76;26554;-55
2022/02/15 11:09:04;;;;;;;1.00;1.00;;;;;;;;;;1836528;78;26312;-51
2022/02/15 11:11:37;;;;;;;2.22;1.30;;;;;;;;;;1841672;76;26288;-50
2022/02/15 11:14:05;;;;;;;0.90;0.90;;;;;;;;;;1843432;76;26318;-52
2022/02/15 11:16:34;;;;;;;1.00;1.00;;;;;;;;;;1845897;76;26847;-51
2022/02/15 11:19:13;;;;;;;1.00;1.00;;;;;;;;;;1842250;76;26558;-56
2022/02/15 11:21:42;;;;;;;1.77;1.05;;;;;;;;;;1846785;76;26288;-57
2022/02/15 11:24:09;;;;;;;1.10;1.10;;;;;;;;;;1843397;76;26297;-53
2022/02/15 11:26:41;;;;;;;1.20;1.10;;;;;;;;;;1807538;77;26364;-58
2022/02/15 11:29:25;;;;;;;1.00;1.00;;;;;;;;;;1832969;76;26330;-49
2022/02/15 11:31:56;;;;;;;4.67;1.10;;;;;;;;;;1830639;76;26303;-54
2022/02/15 11:34:30;;;;;;;0.98;0.98;;;;;;;;;;1834946;76;26268;-51
2022/02/15 11:36:58;;;;;;;1.50;0.90;;;;;;;;;;1830002;76;26292;-54
2022/02/15 11:39:27;;;;;;;0.80;0.80;;;;;;;;;;1838840;76;26260;-52
2022/02/15 11:41:55;;;;;;;0.90;0.90;;;;;;;;;;1839619;77;26166;-50
2022/02/15 11:44:33;;;;;;;1.10;1.10;;;;;;;;;;1831145;76;26806;-51
2022/02/15 11:47:14;;;;;;;1.00;1.00;;;;;;;;;;1836571;76;26301;-52
2022/02/15 11:49:52;;;;;;;1.10;1.10;;;;;;;;;;1835054;76;26358;-54
2022/02/15 11:52:19;;;;;;;1.77;1.00;;;;;;;;;;1834021;77;26308;-55
2022/02/15 11:54:47;;;;;;;1.00;1.00;;;;;;;;;;1835116;76;26809;-55
2022/02/15 11:57:15;;;;;;;3.45;1.15;;;;;;;;;;1841251;76;26324;-54
2022/02/15 11:59:46;;;;;;;1.07;1.07;;;;;;;;;;1837181;76;26308;-56
2022/02/15 12:02:15;;;;;;;0.90;0.90;;;;;;;;;;1837189;76;26713;-54
2022/02/15 12:04:43;;;;;;;0.90;0.90;;;;;;;;;;1834089;77;26333;-57
2022/02/15 12:07:12;;;;;;;1.25;1.00;;;;;;;;;;1837448;76;26903;-52
2022/02/15 12:09:39;;;;;;;2.70;1.10;;;;;;;;;;1835551;76;26720;-51
2022/02/15 12:12:10;;;;;;;1.02;1.02;;;;;;;;;;1836931;76;26725;-52
2022/02/15 12:14:37;;;;;;;0.90;0.90;;;;;;;;;;1839373;76;26280;-52
2022/02/15 12:17:04;;;;;;;1.10;1.00;;;;;;;;;;1807111;77;26278;-49
2022/02/15 12:19:37;;;;;;;1.10;1.10;;;;;;;;;;1834471;76;26345;-52
2022/02/15 12:22:03;;;;;;;0.80;0.80;;;;;;;;;;1845253;76;26271;-49
2022/02/15 12:24:31;;;;;;;0.85;0.85;;;;;;;;;;1846649;76;26267;-51
2022/02/15 12:27:00;;;;;;;1.00;1.00;;;;;;;;;;1840054;76;26381;-53
2022/02/15 12:29:28;;;;;;;1.00;1.00;;;;;;;;;;1834432;76;26376;-55
2022/02/15 12:32:00;;;;;;;0.90;0.90;;;;;;;;;;1840265;76;26400;-50
2022/02/15 12:34:28;;;;;;;1.00;1.00;;;;;;;;;;1837131;76;26741;-49
2022/02/15 12:36:56;;;;;;;1.00;1.00;;;;;;;;;;1844875;77;25839;-52
2022/02/15 12:39:24;;;;;;;1.10;1.00;;;;;;;;;;1844857;77;26358;-54
2022/02/15 12:41:52;;;;;;;0.90;0.90;;;;;;;;;;1832630;77;26279;-49
2022/02/15 12:44:19;;;;;;;0.90;0.90;;;;;;;;;;1844082;77;26388;-49
2022/02/15 12:46:46;;;;;;;1.65;1.00;;;;;;;;;;1839181;78;26370;-52
2022/02/15 12:49:14;;;;;;;2.27;1.07;;;;;;;;;;1828625;76;28257;-49
2022/02/15 12:51:43;;;;;;;2.37;0.90;;;;;;;;;;1839637;76;26406;-58
2022/02/15 12:54:12;;;;;;;1.00;1.00;;;;;;;;;;1838191;76;26304;-56
2022/02/15 12:56:40;;;;;;;1.00;1.00;;;;;;;;;;1839118;76;26335;-57
2022/02/15 12:59:10;;;;;;;1.10;1.00;;;;;;;;;;1838426;76;26716;-55
2022/02/15 13:01:38;;;;;;;0.80;0.80;;;;;;;;;;1840455;76;26273;-57
2022/02/15 13:04:07;;;;;;;0.93;0.93;;;;;;;;;;1826226;76;26345;-56
2022/02/15 13:06:39;;;;;;;1.22;1.10;;;;;;;;;;1833703;76;26702;-54
2022/02/15 13:09:10;;;;;;;6.17;1.47;;;;;;;;;;1825500;76;28417;-55
2022/02/15 13:11:38;;;;;;;1.25;1.15;;;;;;;;;;1823967;76;26339;-51
2022/02/15 13:14:06;;;;;;;1.40;1.10;;;;;;;;;;1835928;76;26358;-53
2022/02/15 13:16:40;;;;;;;0.90;0.90;;;;;;;;;;1833806;76;26290;-55
2022/02/15 13:19:08;;;;;;;4.08;1.05;;;;;;;;;;1835299;76;26380;-54
2022/02/15 13:21:37;;;;;;;3.08;0.95;;;;;;;;;;1829038;76;26366;-55
2022/02/15 13:24:05;;;;;;;2.22;0.93;;;;;;;;;;1831730;77;26274;-53
2022/02/15 13:26:36;;;;;;;3.62;1.00;;;;;;;;;;1839502;76;26656;-54
2022/02/15 13:29:04;;;;;;;3.80;1.10;;;;;;;;;;1840127;77;26661;-50
2022/02/15 13:31:42;;;;;;;1.32;1.02;;;;;;;;;;1835487;77;26303;-52
2022/02/15 13:34:09;;;;;;;1.00;0.90;;;;;;;;;;1828289;77;26600;-53
2022/02/15 13:36:37;;;;;;;0.90;0.80;;;;;;;;;;1829748;77;26334;-58
2022/02/15 13:39:06;;;;;;;2.37;0.90;;;;;;;;;;1839740;78;27363;-59
2022/02/15 13:41:35;;;;;;;1.60;0.90;;;;;;;;;;1839998;77;26836;-56
2022/02/15 13:44:03;;;;;;;0.98;0.80;;;;;;;;;;1845831;77;26308;-60
2022/02/15 13:46:33;;;;;;;0.93;0.93;;;;;;;;;;1837550;77;26385;-58
2022/02/15 13:49:01;;;;;;;1.10;0.85;;;;;;;;;;1833509;76;26336;-59
2022/02/15 13:51:30;;;;;;;0.70;0.70;;;;;;;;;;1822612;77;26730;-57
2022/02/15 13:53:59;;;;;;;1.22;1.12;;;;;;;;;;1832093;77;26291;-58
2022/02/15 13:56:26;;;;;;;0.78;0.78;;;;;;;;;;1838848;76;26370;-58
2022/02/15 13:58:54;;;;;;;0.70;0.70;;;;;;;;;;1839527;76;26771;-58
2022/02/15 14:01:22;;;;;;;0.85;0.85;;;;;;;;;;1850173;77;26363;-54
2022/02/15 14:03:52;;;;;;;0.70;0.70;;;;;;;;;;1820499;78;26789;-54
2022/02/15 14:06:21;;;;;;;1.10;0.80;;;;;;;;;;1841658;76;26292;-58
2022/02/15 14:08:49;;;;;;;1.15;0.98;;;;;;;;;;1845369;76;26272;-52
2022/02/15 14:11:17;;;;;;;0.98;0.98;;;;;;;;;;1835121;76;26229;-53
2022/02/15 14:13:45;;;;;;;1.57;1.00;;;;;;;;;;1845045;76;26259;-52
2022/02/15 14:16:13;;;;;;;0.95;0.90;;;;;;;;;;1845109;76;26286;-50
2022/02/15 14:18:41;;;;;;;0.90;0.90;;;;;;;;;;1842948;76;26247;-50
2022/02/15 14:21:09;;;;;;;0.90;0.90;;;;;;;;;;1845705;76;26402;-53
2022/02/15 14:23:37;;;;;;;1.02;1.02;;;;;;;;;;1838115;77;26213;-52
2022/02/15 14:26:08;;;;;;;1.20;1.10;;;;;;;;;;1845948;76;26303;-55
2022/02/15 14:28:35;;;;;;;0.80;0.80;;;;;;;;;;1847005;76;26276;-56
2022/02/15 14:31:05;;;;;;;0.85;0.85;;;;;;;;;;1847922;76;26400;-51
2022/02/15 14:33:32;;;;;;;0.93;0.93;;;;;;;;;;1847139;76;26287;-50
2022/02/15 14:36:01;;;;;;;1.00;1.00;;;;;;;;;;1846484;76;26280;-53
2022/02/15 14:38:28;;;;;;;0.85;0.85;;;;;;;;;;1844881;77;26356;-52
2022/02/15 14:40:56;;;;;;;0.90;0.90;;;;;;;;;;1840325;77;26777;-54
2022/02/15 14:43:23;;;;;;;0.85;0.85;;;;;;;;;;1841010;76;26385;-52
2022/02/15 14:45:51;;;;;;;1.05;0.90;;;;;;;;;;1839327;76;26275;-54
2022/02/15 14:48:21;;;;;;;0.78;0.78;;;;;;;;;;1840001;76;26284;-53
2022/02/15 14:50:48;;;;;;;0.70;0.70;;;;;;;;;;1829042;77;26287;-52
2022/02/15 14:53:16;;;;;;;1.00;1.00;;;;;;;;;;1842171;76;26769;-50
2022/02/15 14:55:44;;;;;;;0.70;0.70;;;;;;;;;;1818497;76;26349;-53